Time;durP1;ratioP1;P1;durP2;ratioP2;P2;SDS_P1;SDS_P2;PMS_P1;PMS_P2;Temp;Humidity;BMP_temperature;BMP_pressure;BME280_temperature;BME280_humidity;BME280_pressure;Samples;Min_cycle;Max_cycle;Signal;HPM_P1;HPM_P2
2023/08/23 00:01:33;;;;;;;;;;;;;;;23.86;56.75;102024.38;5063532;28;19920;-45
2023/08/23 00:03:58;;;;;;;;;;;;;;;23.86;56.57;102026.25;5063701;28;19913;-46
2023/08/23 00:06:23;;;;;;;;;;;;;;;23.85;56.64;102022.72;5062452;28;19917;-45
2023/08/23 00:08:48;;;;;;;;;;;;;;;23.85;56.46;102027.28;5063923;28;19920;-47
2023/08/23 00:11:14;;;;;;;;;;;;;;;23.84;56.75;102026.44;5063565;28;19921;-44
2023/08/23 00:13:39;;;;;;;;;;;;;;;23.83;56.74;102024.75;5063699;28;19963;-46
2023/08/23 00:16:04;;;;;;;;;;;;;;;23.83;56.65;102029.31;5063170;28;20373;-46
2023/08/23 00:18:29;;;;;;;;;;;;;;;23.82;56.53;102028.47;5063597;28;19935;-45
2023/08/23 00:20:55;;;;;;;;;;;;;;;23.83;56.64;102023.88;5063194;28;19917;-46
2023/08/23 00:23:20;;;;;;;;;;;;;;;23.82;56.67;102019.47;5062832;28;19947;-45
2023/08/23 00:25:45;;;;;;;;;;;;;;;23.81;56.49;102029.50;5063284;28;19917;-44
2023/08/23 00:28:10;;;;;;;;;;;;;;;23.81;56.47;102020.50;5063470;28;19952;-45
2023/08/23 00:30:35;;;;;;;;;;;;;;;23.80;56.48;102022.38;5063682;28;19920;-44
2023/08/23 00:33:01;;;;;;;;;;;;;;;23.80;56.49;102016.97;5061826;28;19913;-44
2023/08/23 00:35:26;;;;;;;;;;;;;;;23.79;56.48;102015.28;5062251;28;19940;-45
2023/08/23 00:37:51;;;;;;;;;;;;;;;23.78;56.32;102002.69;5063790;28;19917;-44
2023/08/23 00:40:18;;;;;;;;;;;;;;;23.79;56.49;102006.25;5061218;28;19913;-45
2023/08/23 00:42:43;;;;;;;;;;;;;;;23.78;56.24;102002.69;5063476;28;19940;-44
2023/08/23 00:45:08;;;;;;;;;;;;;;;23.78;56.16;102005.41;5062829;28;19919;-43
2023/08/23 00:47:34;;;;;;;;;;;;;;;23.77;56.35;101997.44;5063489;28;19916;-45
2023/08/23 00:49:59;;;;;;;;;;;;;;;23.77;56.15;102000.16;5063052;28;20266;-46
2023/08/23 00:52:24;;;;;;;;;;;;;;;23.77;56.39;102002.88;5061537;28;19912;-45
2023/08/23 00:54:49;;;;;;;;;;;;;;;23.75;56.08;102005.78;5061380;28;19924;-44
2023/08/23 00:57:15;;;;;;;;;;;;;;;23.75;56.22;102005.78;5095723;28;19917;-43
2023/08/23 00:59:40;;;;;;;;;;;;;;;23.75;56.19;102007.66;5063115;28;19913;-44
2023/08/23 01:02:05;;;;;;;;;;;;;;;23.75;55.95;102004.94;5061804;28;19917;-45
2023/08/23 01:04:30;;;;;;;;;;;;;;;23.75;56.23;102004.94;5064780;28;20413;-44
2023/08/23 01:07:11;;;;;;;;;;;;;;;23.73;56.22;102005.09;5067083;28;19917;-44
2023/08/23 01:09:41;;;;;;;;;;;;;;;23.73;56.11;101996.09;5065587;28;19913;-45
2023/08/23 01:12:14;;;;;;;;;;;;;;;23.73;56.17;101996.94;5099052;28;19913;-46
2023/08/23 01:14:46;;;;;;;;;;;;;;;23.72;56.09;101992.53;5066286;28;19913;-47
2023/08/23 01:17:11;;;;;;;;;;;;;;;23.72;55.85;101988.97;5064999;28;20324;-46
2023/08/23 01:19:47;;;;;;;;;;;;;;;23.71;56.15;101996.28;5065955;28;19923;-44
2023/08/23 01:22:13;;;;;;;;;;;;;;;23.70;56.00;101986.41;5066547;28;20336;-45
2023/08/23 01:24:39;;;;;;;;;;;;;;;23.69;55.94;101988.28;5098519;28;19927;-45
2023/08/23 01:27:04;;;;;;;;;;;;;;;23.70;55.75;101994.56;5098556;28;19997;-44
2023/08/23 01:29:29;;;;;;;;;;;;;;;23.69;55.78;101996.44;5065671;28;20008;-45
2023/08/23 01:32:00;;;;;;;;;;;;;;;23.67;55.94;101995.78;5066460;28;19992;-46
2023/08/23 01:34:26;;;;;;;;;;;;;;;23.67;56.00;101987.63;5065254;28;19947;-44
2023/08/23 01:36:51;;;;;;;;;;;;;;;23.67;55.97;101984.06;5066271;28;19917;-44
2023/08/23 01:39:16;;;;;;;;;;;;;;;23.66;55.87;101979.63;5098283;28;19913;-46
2023/08/23 01:41:42;;;;;;;;;;;;;;;23.66;55.72;101979.63;5065940;28;19913;-46
2023/08/23 01:44:07;;;;;;;;;;;;;;;23.66;55.90;101976.94;5098384;28;19913;-45
2023/08/23 01:46:33;;;;;;;;;;;;;;;23.65;55.83;101970.66;5065982;28;19920;-45
2023/08/23 01:48:59;;;;;;;;;;;;;;;23.65;55.72;101969.81;5066138;28;19912;-48
2023/08/23 01:51:24;;;;;;;;;;;;;;;23.65;55.46;101980.66;5065511;28;19923;-45
2023/08/23 01:53:49;;;;;;;;;;;;;;;23.64;55.79;101979.78;5065879;28;19938;-45
2023/08/23 01:56:14;;;;;;;;;;;;;;;23.63;55.83;101978.09;5066103;28;19928;-44
2023/08/23 01:58:39;;;;;;;;;;;;;;;23.63;55.80;101982.69;5065028;28;19917;-47
2023/08/23 02:01:04;;;;;;;;;;;;;;;23.63;55.68;101988.13;5065056;28;19963;-44
2023/08/23 02:03:30;;;;;;;;;;;;;;;23.62;55.53;101984.56;5065516;28;19921;-44
2023/08/23 02:05:55;;;;;;;;;;;;;;;23.62;55.55;101981.84;5064986;28;19912;-45
2023/08/23 02:08:21;;;;;;;;;;;;;;;23.62;55.59;101981.00;5065791;28;19939;-45
2023/08/23 02:10:46;;;;;;;;;;;;;;;23.60;55.75;101983.03;5065636;28;19980;-45
2023/08/23 02:13:11;;;;;;;;;;;;;;;23.60;55.62;101974.88;5065766;28;19913;-44
2023/08/23 02:15:36;;;;;;;;;;;;;;;23.58;55.63;101975.06;5072803;28;19952;-45
2023/08/23 02:18:01;;;;;;;;;;;;;;;23.59;55.66;101978.63;5065659;28;19917;-43
2023/08/23 02:20:27;;;;;;;;;;;;;;;23.58;55.51;101980.50;5064662;28;19940;-44
2023/08/23 02:22:52;;;;;;;;;;;;;;;23.58;55.38;101983.22;5065125;28;19977;-44
2023/08/23 02:25:17;;;;;;;;;;;;;;;23.57;55.59;101976.06;5065173;28;19912;-43
2023/08/23 02:27:42;;;;;;;;;;;;;;;23.57;55.40;101972.50;5065520;28;19944;-45
2023/08/23 02:30:08;;;;;;;;;;;;;;;23.57;55.60;101977.94;5064740;28;20011;-44
2023/08/23 02:32:33;;;;;;;;;;;;;;;23.55;55.34;101978.13;5065401;28;19967;-43
2023/08/23 02:34:58;;;;;;;;;;;;;;;23.55;55.54;101975.41;5096744;28;19917;-43
2023/08/23 02:37:23;;;;;;;;;;;;;;;23.54;55.22;101968.28;5065240;28;19921;-44
2023/08/23 02:39:49;;;;;;;;;;;;;;;23.55;55.49;101971.84;5064691;28;19943;-46
2023/08/23 02:42:14;;;;;;;;;;;;;;;23.53;55.30;101969.28;5065110;28;19917;-45
2023/08/23 02:44:39;;;;;;;;;;;;;;;23.53;55.36;101961.16;5064981;28;19912;-45
2023/08/23 02:47:05;;;;;;;;;;;;;;;23.53;55.46;101958.44;5064613;28;19913;-44
2023/08/23 02:49:30;;;;;;;;;;;;;;;23.52;55.35;101951.31;5064395;28;19939;-44
2023/08/23 02:51:55;;;;;;;;;;;;;;;23.52;55.30;101955.91;5064487;28;19925;-44
2023/08/23 02:54:20;;;;;;;;;;;;;;;23.52;55.16;101950.47;5064733;28;19935;-44
2023/08/23 02:56:45;;;;;;;;;;;;;;;23.51;55.20;101956.94;5064481;28;19921;-44
2023/08/23 02:59:11;;;;;;;;;;;;;;;23.50;55.11;101955.25;5064567;28;19924;-46
2023/08/23 03:01:36;;;;;;;;;;;;;;;23.50;55.36;101942.53;5064896;28;19920;-45
2023/08/23 03:04:01;;;;;;;;;;;;;;;23.49;55.06;101943.53;5064706;28;19920;-44
2023/08/23 03:06:26;;;;;;;;;;;;;;;23.49;55.14;101942.66;5063173;28;20386;-44
2023/08/23 03:08:52;;;;;;;;;;;;;;;23.48;55.13;101943.69;5064587;28;19936;-46
2023/08/23 03:11:17;;;;;;;;;;;;;;;23.48;55.01;101939.13;5064571;28;19916;-48
2023/08/23 03:13:42;;;;;;;;;;;;;;;23.47;54.94;101928.44;5064343;28;19947;-47
2023/08/23 03:16:07;;;;;;;;;;;;;;;23.48;54.85;101936.41;5063738;28;19923;-47
2023/08/23 03:18:32;;;;;;;;;;;;;;;23.45;55.01;101924.03;5064317;28;19920;-45
2023/08/23 03:20:57;;;;;;;;;;;;;;;23.46;54.98;101930.31;5063933;28;20030;-44
2023/08/23 03:23:23;;;;;;;;;;;;;;;23.45;55.17;101936.78;5063930;28;20019;-48
2023/08/23 03:25:48;;;;;;;;;;;;;;;23.44;55.03;101938.59;5063728;28;19920;-48
2023/08/23 03:28:13;;;;;;;;;;;;;;;23.44;54.98;101945.91;5064424;28;19916;-43
2023/08/23 03:30:39;;;;;;;;;;;;;;;23.43;55.01;101941.50;5064243;28;19920;-47
2023/08/23 03:33:05;;;;;;;;;;;;;;;23.42;55.08;101934.41;5063932;28;20011;-44
2023/08/23 03:35:30;;;;;;;;;;;;;;;23.42;54.94;101934.41;5061779;28;19917;-45
2023/08/23 03:37:56;;;;;;;;;;;;;;;23.42;54.94;101928.97;5064828;28;19961;-46
2023/08/23 03:40:21;;;;;;;;;;;;;;;23.41;54.82;101932.72;5064190;28;19919;-46
2023/08/23 03:42:46;;;;;;;;;;;;;;;23.41;55.04;101930.84;5063839;28;19920;-46
2023/08/23 03:45:11;;;;;;;;;;;;;;;23.40;55.05;101926.41;5063743;28;19988;-49
2023/08/23 03:47:37;;;;;;;;;;;;;;;23.40;54.98;101925.56;5062873;28;19913;-46
2023/08/23 03:50:02;;;;;;;;;;;;;;;23.40;55.11;101922.84;5062927;28;19960;-46
2023/08/23 03:52:28;;;;;;;;;;;;;;;23.39;55.05;101923.88;5061746;28;20002;-45
2023/08/23 03:54:53;;;;;;;;;;;;;;;23.38;54.82;101936.59;5061887;28;19928;-47
2023/08/23 03:57:18;;;;;;;;;;;;;;;23.37;54.89;101932.22;5063959;28;19916;-44
2023/08/23 03:59:43;;;;;;;;;;;;;;;23.37;54.76;101934.91;5063493;28;19923;-43
2023/08/23 04:02:09;;;;;;;;;;;;;;;23.37;55.03;101939.50;5063592;28;19913;-45
2023/08/23 04:04:34;;;;;;;;;;;;;;;23.36;55.11;101943.22;5062534;28;20547;-46
2023/08/23 04:06:59;;;;;;;;;;;;;;;23.36;54.97;101943.22;5061458;28;19921;-44
2023/08/23 04:09:24;;;;;;;;;;;;;;;23.36;55.26;101943.22;5060260;28;20312;-44
2023/08/23 04:11:49;;;;;;;;;;;;;;;23.36;55.32;101943.22;5061544;28;20023;-47
2023/08/23 04:14:15;;;;;;;;;;;;;;;23.36;55.39;101937.78;5063518;28;20659;-44
2023/08/23 04:16:40;;;;;;;;;;;;;;;23.36;55.38;101944.09;5063361;28;20376;-44
2023/08/23 04:19:05;;;;;;;;;;;;;;;23.37;55.48;101944.94;5063469;28;20284;-44
2023/08/23 04:21:30;;;;;;;;;;;;;;;23.36;55.25;101941.38;5062468;28;19923;-44
2023/08/23 04:23:56;;;;;;;;;;;;;;;23.36;55.36;101946.81;5063143;28;20282;-44
2023/08/23 04:26:21;;;;;;;;;;;;;;;23.36;55.52;101951.34;5063486;28;19920;-46
2023/08/23 04:28:47;;;;;;;;;;;;;;;23.35;55.61;101945.09;5063486;28;19924;-46
2023/08/23 04:31:12;;;;;;;;;;;;;;;23.37;55.37;101943.06;5094877;28;19917;-47
2023/08/23 04:33:39;;;;;;;;;;;;;;;23.36;55.48;101944.09;5062615;28;20311;-46
2023/08/23 04:36:04;;;;;;;;;;;;;;;23.36;55.48;101943.22;5062142;28;19928;-45
2023/08/23 04:38:30;;;;;;;;;;;;;;;23.36;55.77;101946.81;5065167;28;19939;-44
2023/08/23 04:40:59;;;;;;;;;;;;;;;23.36;55.51;101943.22;5066779;28;19923;-45
2023/08/23 04:43:24;;;;;;;;;;;;;;;23.35;55.56;101939.66;5066917;28;20451;-44
2023/08/23 04:45:49;;;;;;;;;;;;;;;23.35;55.67;101945.09;5066870;28;20371;-45
2023/08/23 04:48:15;;;;;;;;;;;;;;;23.36;56.03;101954.06;5066730;28;19920;-45
2023/08/23 04:50:40;;;;;;;;;;;;;;;23.36;55.99;101962.22;5066512;28;20409;-45
2023/08/23 04:53:05;;;;;;;;;;;;;;;23.35;55.99;101960.53;5067004;28;19935;-43
2023/08/23 04:55:30;;;;;;;;;;;;;;;23.35;55.98;101968.66;5066583;28;19916;-44
2023/08/23 04:57:55;;;;;;;;;;;;;;;23.36;55.99;101973.06;5066910;28;19913;-43
2023/08/23 05:00:21;;;;;;;;;;;;;;;23.35;55.97;101972.22;5099073;28;19983;-45
2023/08/23 05:02:46;;;;;;;;;;;;;;;23.34;56.18;101969.69;5065537;28;19976;-46
2023/08/23 05:05:11;;;;;;;;;;;;;;;23.34;55.94;101970.53;5064916;28;19939;-46
2023/08/23 05:07:37;;;;;;;;;;;;;;;23.33;56.16;101962.59;5062015;28;19916;-47
2023/08/23 05:10:04;;;;;;;;;;;;;;;23.34;55.99;101965.09;5059098;28;19921;-46
2023/08/23 05:12:29;;;;;;;;;;;;;;;23.33;56.21;101963.41;5065156;28;19996;-47
2023/08/23 05:14:54;;;;;;;;;;;;;;;23.34;56.15;101964.25;5065932;28;19916;-47
2023/08/23 05:17:21;;;;;;;;;;;;;;;23.33;56.30;101960.72;5066004;28;19940;-50
2023/08/23 05:19:46;;;;;;;;;;;;;;;23.33;56.23;101957.16;5065685;28;19964;-48
2023/08/23 05:22:11;;;;;;;;;;;;;;;23.33;56.23;101957.16;5066358;28;19916;-49
2023/08/23 05:24:37;;;;;;;;;;;;;;;23.33;56.00;101959.88;5063010;28;19925;-48
2023/08/23 05:27:02;;;;;;;;;;;;;;;23.32;56.16;101961.75;5066086;28;20394;-46
2023/08/23 05:29:27;;;;;;;;;;;;;;;23.32;55.93;101961.75;5064156;28;19913;-49
2023/08/23 05:31:52;;;;;;;;;;;;;;;23.31;55.79;101957.31;5065365;28;20003;-47
2023/08/23 05:34:18;;;;;;;;;;;;;;;23.31;55.69;101956.47;5062137;28;19939;-46
2023/08/23 05:36:43;;;;;;;;;;;;;;;23.31;56.04;101960.00;5065091;28;19936;-48
2023/08/23 05:39:09;;;;;;;;;;;;;;;23.30;55.93;101955.63;5064766;28;19963;-46
2023/08/23 05:41:34;;;;;;;;;;;;;;;23.30;55.75;101966.47;5065018;28;20500;-48
2023/08/23 05:43:59;;;;;;;;;;;;;;;23.29;55.60;101956.66;5064939;28;19916;-46
2023/08/23 05:46:24;;;;;;;;;;;;;;;23.28;55.76;101965.81;5063887;28;20003;-50
2023/08/23 05:48:50;;;;;;;;;;;;;;;23.28;55.73;101959.50;5064367;28;19941;-48
2023/08/23 05:51:15;;;;;;;;;;;;;;;23.27;55.55;101960.53;5063125;28;19932;-46
2023/08/23 05:53:40;;;;;;;;;;;;;;;23.27;55.61;101961.38;5064833;28;19917;-49
2023/08/23 05:56:05;;;;;;;;;;;;;;;23.28;55.53;101964.94;5065168;28;19943;-49
2023/08/23 05:58:31;;;;;;;;;;;;;;;23.27;55.48;101963.25;5096573;28;19925;-46
2023/08/23 06:00:56;;;;;;;;;;;;;;;23.27;55.40;101965.97;5063001;28;19978;-45
2023/08/23 06:03:21;;;;;;;;;;;;;;;23.27;55.69;101966.81;5062274;28;19969;-48
2023/08/23 06:05:46;;;;;;;;;;;;;;;23.26;55.53;101965.13;5064482;28;19917;-45
2023/08/23 06:08:12;;;;;;;;;;;;;;;23.27;55.57;101955.09;5097305;28;19917;-47
2023/08/23 06:10:37;;;;;;;;;;;;;;;23.26;55.61;101958.84;5065769;28;19919;-49
2023/08/23 06:13:02;;;;;;;;;;;;;;;23.25;55.65;101959.88;5063650;28;20004;-44
2023/08/23 06:15:28;;;;;;;;;;;;;;;23.24;55.53;101959.03;5065228;28;19917;-48
2023/08/23 06:17:54;;;;;;;;;;;;;;;23.24;55.36;101960.91;5065010;28;19920;-44
2023/08/23 06:20:19;;;;;;;;;;;;;;;23.23;55.56;101964.63;5064751;28;20023;-47
2023/08/23 06:22:44;;;;;;;;;;;;;;;23.22;55.53;101963.78;5064543;28;19916;-47
2023/08/23 06:25:09;;;;;;;;;;;;;;;23.22;55.45;101957.50;5065164;28;19939;-44
2023/08/23 06:27:35;;;;;;;;;;;;;;;23.21;55.29;101967.50;5064806;28;19920;-45
2023/08/23 06:30:00;;;;;;;;;;;;;;;23.20;55.46;101963.09;5064680;28;19916;-49
2023/08/23 06:32:25;;;;;;;;;;;;;;;23.20;55.44;101969.38;5064433;28;19924;-47
2023/08/23 06:34:52;;;;;;;;;;;;;;;23.19;55.40;101967.69;5064252;28;19959;-48
2023/08/23 06:37:18;;;;;;;;;;;;;;;23.19;55.30;101959.56;5064840;28;19921;-43
2023/08/23 06:39:43;;;;;;;;;;;;;;;23.19;55.32;101961.38;5064757;28;19947;-45
2023/08/23 06:42:08;;;;;;;;;;;;;;;23.19;55.20;101958.69;5064247;28;19916;-44
2023/08/23 06:44:33;;;;;;;;;;;;;;;23.19;55.21;101961.38;5064593;28;19924;-46
2023/08/23 06:46:59;;;;;;;;;;;;;;;23.18;55.50;101970.56;5064595;28;19916;-44
2023/08/23 06:49:24;;;;;;;;;;;;;;;23.18;55.41;101967.84;5063567;28;20011;-44
2023/08/23 06:51:49;;;;;;;;;;;;;;;23.18;55.27;101968.69;5096936;28;19912;-48
2023/08/23 06:54:14;;;;;;;;;;;;;;;23.18;55.32;101968.69;5064783;28;19921;-49
2023/08/23 06:56:39;;;;;;;;;;;;;;;23.18;55.21;101970.56;5064398;28;19917;-46
2023/08/23 06:59:05;;;;;;;;;;;;;;;23.18;55.42;101970.56;5064964;28;19988;-48
2023/08/23 07:01:30;;;;;;;;;;;;;;;23.18;55.45;101976.81;5063784;28;19912;-48
2023/08/23 07:03:55;;;;;;;;;;;;;;;23.17;55.22;101980.56;5064457;28;19944;-47
2023/08/23 07:06:20;;;;;;;;;;;;;;;23.17;55.45;101980.56;5063414;28;19952;-48
2023/08/23 07:08:45;;;;;;;;;;;;;;;23.17;55.27;101980.56;5064571;28;20003;-47
2023/08/23 07:11:11;;;;;;;;;;;;;;;23.17;55.39;101982.44;5064503;28;20211;-45
2023/08/23 07:13:38;;;;;;;;;;;;;;;23.17;55.36;101986.00;5063759;28;20425;-44
2023/08/23 07:16:03;;;;;;;;;;;;;;;23.17;55.47;101990.56;5062810;28;19920;-45
2023/08/23 07:18:29;;;;;;;;;;;;;;;23.17;55.51;101991.41;5068172;28;19935;-47
2023/08/23 07:20:54;;;;;;;;;;;;;;;23.17;55.23;101986.00;5064014;28;19931;-47
2023/08/23 07:23:19;;;;;;;;;;;;;;;23.18;55.28;101984.97;5063561;28;19943;-46
2023/08/23 07:25:45;;;;;;;;;;;;;;;23.17;55.44;101975.13;5063449;28;19967;-49
2023/08/23 07:28:11;;;;;;;;;;;;;;;23.17;55.19;101979.72;5063680;28;19974;-48
2023/08/23 07:30:36;;;;;;;;;;;;;;;23.17;55.44;101982.44;5096650;28;19987;-47
2023/08/23 07:33:02;;;;;;;;;;;;;;;23.16;55.30;101983.47;5063810;28;19977;-48
2023/08/23 07:35:27;;;;;;;;;;;;;;;23.16;55.51;101981.59;5062864;28;19984;-49
2023/08/23 07:37:52;;;;;;;;;;;;;;;23.16;55.41;101983.47;5063862;28;20426;-49
2023/08/23 07:40:17;;;;;;;;;;;;;;;23.16;55.29;101989.72;5063682;28;19921;-46
2023/08/23 07:42:43;;;;;;;;;;;;;;;23.16;55.45;101992.44;5061965;28;19920;-50
2023/08/23 07:45:08;;;;;;;;;;;;;;;23.16;55.47;101984.31;5064050;28;19920;-48
2023/08/23 07:47:34;;;;;;;;;;;;;;;23.16;55.17;101988.88;5063891;28;19972;-50
2023/08/23 07:49:59;;;;;;;;;;;;;;;23.15;55.58;101985.34;5062147;28;19992;-44
2023/08/23 07:52:24;;;;;;;;;;;;;;;23.16;55.55;101984.31;5063089;28;19925;-50
2023/08/23 07:54:49;;;;;;;;;;;;;;;23.16;55.46;101991.59;5063887;28;20003;-47
2023/08/23 07:57:14;;;;;;;;;;;;;;;23.16;55.40;101994.31;5063916;28;19925;-48
2023/08/23 07:59:40;;;;;;;;;;;;;;;23.16;55.27;101992.44;5062924;28;20019;-47
2023/08/23 08:02:05;;;;;;;;;;;;;;;23.16;55.18;101983.47;5062125;28;19917;-45
2023/08/23 08:04:31;;;;;;;;;;;;;;;23.16;55.24;101988.88;5063207;28;19912;-46
2023/08/23 08:06:56;;;;;;;;;;;;;;;23.16;55.21;101989.72;5063425;28;19917;-47
2023/08/23 08:09:22;;;;;;;;;;;;;;;23.16;55.22;101986.16;5063694;28;19920;-49
2023/08/23 08:11:47;;;;;;;;;;;;;;;23.15;55.36;101990.75;5060714;28;20943;-48
2023/08/23 08:14:12;;;;;;;;;;;;;;;23.17;55.23;101993.28;5066738;28;19923;-45
2023/08/23 08:16:37;;;;;;;;;;;;;;;23.16;55.45;101991.59;5067629;28;20297;-48
2023/08/23 08:19:02;;;;;;;;;;;;;;;23.16;55.24;101995.16;5099722;28;19917;-48
2023/08/23 08:21:28;;;;;;;;;;;;;;;23.16;55.38;102000.59;5066990;28;19916;-48
2023/08/23 08:23:53;;;;;;;;;;;;;;;23.17;55.28;102009.56;5066852;28;19925;-46
2023/08/23 08:26:18;;;;;;;;;;;;;;;23.17;55.20;102006.84;5067390;28;19917;-48
2023/08/23 08:28:44;;;;;;;;;;;;;;;23.17;55.20;102006.84;5067363;28;19939;-47
2023/08/23 08:31:09;;;;;;;;;;;;;;;23.17;55.45;102007.69;5067644;28;19928;-46
2023/08/23 08:33:35;;;;;;;;;;;;;;;23.17;55.52;102010.41;5065912;28;19921;-51
2023/08/23 08:36:00;;;;;;;;;;;;;;;23.17;55.41;102009.56;5066378;28;19921;-45
2023/08/23 08:38:25;;;;;;;;;;;;;;;23.17;55.44;102015.00;5067133;28;19917;-50
2023/08/23 08:40:50;;;;;;;;;;;;;;;23.18;55.35;102005.81;5067136;28;19917;-49
2023/08/23 08:43:17;;;;;;;;;;;;;;;23.17;55.19;102012.28;5065811;28;20003;-49
2023/08/23 08:45:42;;;;;;;;;;;;;;;23.17;55.22;102013.13;5067039;28;19917;-43
2023/08/23 08:48:07;;;;;;;;;;;;;;;23.17;55.17;102009.56;5099512;28;19992;-47
2023/08/23 08:50:32;;;;;;;;;;;;;;;23.18;55.11;102011.25;5066504;28;19935;-48
2023/08/23 08:52:58;;;;;;;;;;;;;;;23.18;55.22;102009.38;5066850;28;19919;-49
2023/08/23 08:55:24;;;;;;;;;;;;;;;23.18;55.35;102014.81;5066812;28;19913;-46
2023/08/23 08:57:52;;;;;;;;;;;;;;;23.18;55.17;102017.53;5099389;28;20286;-49
2023/08/23 09:00:18;;;;;;;;;;;;;;;23.19;55.28;102021.06;5066808;28;20362;-47
2023/08/23 09:02:43;;;;;;;;;;;;;;;23.18;55.52;102022.94;5066337;28;19916;-47
2023/08/23 09:05:08;;;;;;;;;;;;;;;23.18;55.35;102012.09;5065520;28;19919;-48
2023/08/23 09:07:33;;;;;;;;;;;;;;;23.18;55.41;102025.66;5066969;28;20149;-47
2023/08/23 09:09:59;;;;;;;;;;;;;;;23.18;55.14;102016.69;5066693;28;19956;-49
2023/08/23 09:12:24;;;;;;;;;;;;;;;23.19;55.15;102029.22;5098350;28;19975;-47
2023/08/23 09:14:49;;;;;;;;;;;;;;;23.19;55.09;102026.50;5066496;28;19986;-47
2023/08/23 09:17:15;;;;;;;;;;;;;;;23.19;55.27;102021.97;5065228;28;19947;-44
2023/08/23 09:19:40;;;;;;;;;;;;;;;23.19;55.31;102016.53;5066096;28;19916;-47
2023/08/23 09:22:05;;;;;;;;;;;;;;;23.19;55.26;102004.81;5066295;28;19917;-46
2023/08/23 09:24:31;;;;;;;;;;;;;;;23.18;55.38;102008.53;5066086;28;19988;-45
2023/08/23 09:26:56;;;;;;;;;;;;;;;23.18;55.31;102014.81;5066367;28;19952;-45
2023/08/23 09:29:23;;;;;;;;;;;;;;;23.18;55.53;102003.97;5065861;28;19924;-45
2023/08/23 09:31:48;;;;;;;;;;;;;;;23.19;55.26;102012.94;5065943;28;19974;-45
2023/08/23 09:34:14;;;;;;;;;;;;;;;23.18;55.52;102013.97;5065793;28;19917;-45
2023/08/23 09:36:42;;;;;;;;;;;;;;;23.18;55.44;102008.53;5065807;28;19928;-43
2023/08/23 09:39:09;;;;;;;;;;;;;;;23.17;55.21;102002.28;5065504;28;20015;-44
2023/08/23 09:41:38;;;;;;;;;;;;;;;23.18;55.54;102006.66;5065266;28;19917;-43
2023/08/23 09:44:03;;;;;;;;;;;;;;;23.17;55.25;101998.72;5065052;28;19920;-43
2023/08/23 09:46:29;;;;;;;;;;;;;;;23.17;55.50;101996.84;5065910;28;19916;-43
2023/08/23 09:48:54;;;;;;;;;;;;;;;23.17;55.21;101996.00;5065582;28;19951;-43
2023/08/23 09:51:23;;;;;;;;;;;;;;;23.17;55.32;101996.00;5064133;28;19924;-43
2023/08/23 09:53:49;;;;;;;;;;;;;;;23.17;55.22;101994.13;5065275;28;19917;-43
2023/08/23 09:56:14;;;;;;;;;;;;;;;23.16;55.59;101995.16;5064304;28;20152;-43
2023/08/23 09:58:39;;;;;;;;;;;;;;;23.17;55.54;101996.00;5064322;28;20369;-44
2023/08/23 10:01:04;;;;;;;;;;;;;;;23.16;55.61;101983.47;5065442;28;20289;-43
2023/08/23 10:03:29;;;;;;;;;;;;;;;23.15;55.47;101979.03;5065192;28;19959;-43
2023/08/23 10:05:55;;;;;;;;;;;;;;;23.15;55.47;101985.34;5064903;28;20052;-45
2023/08/23 10:08:20;;;;;;;;;;;;;;;23.16;55.54;101983.47;5080927;28;20008;-44
2023/08/23 10:10:45;;;;;;;;;;;;;;;23.16;55.65;101986.16;5097211;28;20377;-45
2023/08/23 10:13:11;;;;;;;;;;;;;;;23.16;55.30;101978.88;5065602;28;19920;-45
2023/08/23 10:15:37;;;;;;;;;;;;;;;23.16;55.58;101978.88;5065387;28;20319;-44
2023/08/23 10:18:03;;;;;;;;;;;;;;;23.17;55.38;101972.44;5097363;28;19999;-45
2023/08/23 10:20:28;;;;;;;;;;;;;;;23.16;55.41;101975.31;5065331;28;19916;-47
2023/08/23 10:22:55;;;;;;;;;;;;;;;23.17;55.55;101977.84;5065370;28;19924;-44
2023/08/23 10:25:20;;;;;;;;;;;;;;;23.17;55.45;101982.44;5062985;28;19928;-47
2023/08/23 10:27:46;;;;;;;;;;;;;;;23.17;55.54;101975.13;5064974;28;19921;-45
2023/08/23 10:30:32;;;;;;;;;;;;;;;23.17;55.41;101974.28;5065155;28;19990;-48
2023/08/23 10:33:06;;;;;;;;;;;;;;;23.17;55.61;101979.72;5063004;28;19920;-44
2023/08/23 10:35:32;;;;;;;;;;;;;;;23.16;55.64;101975.31;5063513;28;19958;-46
2023/08/23 10:37:57;;;;;;;;;;;;;;;23.18;55.39;101970.56;5064329;28;20352;-48
2023/08/23 10:40:25;;;;;;;;;;;;;;;23.17;55.55;101966.16;5061653;28;19955;-44
2023/08/23 10:42:51;;;;;;;;;;;;;;;23.16;55.71;101965.31;5062098;28;19921;-46
2023/08/23 10:45:16;;;;;;;;;;;;;;;23.16;55.43;101965.31;5065146;28;20020;-46
2023/08/23 10:47:41;;;;;;;;;;;;;;;23.17;55.53;101958.84;5064342;28;19920;-44
2023/08/23 10:50:07;;;;;;;;;;;;;;;23.18;55.42;101965.13;5097099;28;20349;-43
2023/08/23 10:52:32;;;;;;;;;;;;;;;23.18;55.79;101957.00;5064320;28;19987;-48
2023/08/23 10:54:57;;;;;;;;;;;;;;;23.18;55.51;101959.69;5064634;28;20332;-46
2023/08/23 10:57:23;;;;;;;;;;;;;;;23.18;55.63;101960.53;5064146;28;19945;-47
2023/08/23 10:59:48;;;;;;;;;;;;;;;23.18;55.86;101946.13;5064993;28;19913;-48
2023/08/23 11:02:13;;;;;;;;;;;;;;;23.18;55.62;101944.28;5064078;28;19917;-47
2023/08/23 11:04:38;;;;;;;;;;;;;;;23.18;55.64;101933.41;5096719;28;19913;-45
2023/08/23 11:07:04;;;;;;;;;;;;;;;23.19;55.77;101936.97;5061552;28;20011;-45
2023/08/23 11:09:29;;;;;;;;;;;;;;;23.19;55.52;101937.84;5064696;28;19916;-48
2023/08/23 11:11:54;;;;;;;;;;;;;;;23.19;55.88;101937.84;5064280;28;19916;-45
2023/08/23 11:14:19;;;;;;;;;;;;;;;23.19;55.69;101932.41;5064098;28;19916;-47
2023/08/23 11:16:44;;;;;;;;;;;;;;;23.19;55.72;101932.41;5064254;28;19917;-45
2023/08/23 11:19:10;;;;;;;;;;;;;;;23.20;55.80;101927.84;5064049;28;19944;-47
2023/08/23 11:21:35;;;;;;;;;;;;;;;23.19;55.93;101927.00;5063590;28;19992;-43
2023/08/23 11:24:01;;;;;;;;;;;;;;;23.19;55.89;101928.84;5064174;28;19924;-45
2023/08/23 11:26:26;;;;;;;;;;;;;;;23.20;56.11;101925.13;5063813;28;19921;-47
2023/08/23 11:28:52;;;;;;;;;;;;;;;23.20;55.86;101930.56;5064214;28;20404;-46
2023/08/23 11:31:17;;;;;;;;;;;;;;;23.20;56.05;101925.97;5063475;28;19917;-47
2023/08/23 11:33:42;;;;;;;;;;;;;;;23.20;56.09;101925.97;5063122;28;19924;-43
2023/08/23 11:36:09;;;;;;;;;;;;;;;23.20;55.92;101922.41;5063288;28;20313;-45
2023/08/23 11:38:34;;;;;;;;;;;;;;;23.20;56.24;101925.97;5062268;28;19916;-46
2023/08/23 11:41:00;;;;;;;;;;;;;;;23.22;56.10;101930.38;5063905;28;19944;-49
2023/08/23 11:43:26;;;;;;;;;;;;;;;23.21;56.18;101929.53;5063504;28;19984;-47
2023/08/23 11:45:52;;;;;;;;;;;;;;;23.23;56.16;101924.75;5062954;28;19920;-48
2023/08/23 11:48:17;;;;;;;;;;;;;;;23.24;55.82;101917.50;5063921;28;19917;-46
2023/08/23 11:50:43;;;;;;;;;;;;;;;23.25;55.80;101921.88;5095860;28;19921;-47
2023/08/23 11:53:09;;;;;;;;;;;;;;;23.25;55.74;101911.88;5063145;28;19924;-47
2023/08/23 11:55:34;;;;;;;;;;;;;;;23.26;55.70;101921.72;5063448;28;19913;-47
2023/08/23 11:57:59;;;;;;;;;;;;;;;23.28;55.87;101921.53;5095956;28;19920;-43
2023/08/23 12:00:25;;;;;;;;;;;;;;;23.30;55.76;101927.63;5063981;28;19924;-44
2023/08/23 12:02:50;;;;;;;;;;;;;;;23.30;55.70;101923.06;5063079;28;19924;-46
2023/08/23 12:05:19;;;;;;;;;;;;;;;23.31;55.77;101923.91;5062734;28;20266;-44
2023/08/23 12:07:45;;;;;;;;;;;;;;;23.30;55.81;101923.06;5063702;28;19987;-45
2023/08/23 12:10:11;;;;;;;;;;;;;;;23.32;55.86;101929.16;5077607;28;19913;-48
2023/08/23 12:12:36;;;;;;;;;;;;;;;23.33;55.66;101932.72;5063285;28;19917;-47
2023/08/23 12:15:01;;;;;;;;;;;;;;;23.32;55.78;101931.88;5063776;28;19963;-48
2023/08/23 12:17:28;;;;;;;;;;;;;;;23.33;55.94;101930.84;5062822;28;20415;-44
2023/08/23 12:19:53;;;;;;;;;;;;;;;23.34;55.94;101926.28;5063979;28;19924;-46
2023/08/23 12:22:18;;;;;;;;;;;;;;;23.34;55.88;101921.69;5095484;28;19921;-44
2023/08/23 12:24:43;;;;;;;;;;;;;;;23.36;55.90;101932.34;5063102;28;19947;-44
2023/08/23 12:27:09;;;;;;;;;;;;;;;23.36;55.58;101916.94;5063304;28;19912;-45